Irving, New York
Current Conditions -  °F | °C
As of 7:53 AM on Thursday 30 Oct 2014 (Local Time) from KDKK Reporting Station
Overcast Overcast  
Wind Chill: 40°   Ceiling: 2400
Heat Index: 45°   Visibility: 10mi
Dew Point: 37°   Wind: 10mph
Humidity: 74%   Direction: 350°N
Pressure: 30.07"   Gusts: NA
Location:  42.57°N, 79.11°W
Report Text: KDKK 301153Z AUTO 35009KT 10SM BKN024 OVC034 07/03 A3007 RMK AO2 SLP185 70001 T00720028 10083 20072 51014
Loading
Personal Weather Stations






























Interactive Weather Map
Tropical Storm Tracking
New forecast layout! Learn more

10-Day Weather Forecast

Advertisements
Track Severe Weather on mobile